Weather at Aguenar – Hadj Bey Akhamok Airport

Public forecast

Using degrees Celsius for public forecast. Weather courtesy of forecast.io.

Current aviation weather report (METAR) for Aguenar – Hadj Bey Akhamok Airport

Report is more than 6 hours old.

2022/11/14 15:30 (retrieved 2 years ago)

DAAT 141530Z 26008KT 220V300 CAVOK 24/M08 Q1024

Aviation forecast (TAF) for Aguenar – Hadj Bey Akhamok Airport

Forecast is more than 12 hours old.

2023/02/22 18:00 (retrieved 1 year ago)

TAF DAAT 221700Z 2218/2318 32010KT CAVOK BECMG 2219/2221 04008KT